createdAt,value
2018-10-17T00:00:37.515Z,0
2018-10-17T00:01:37.535Z,0
2018-10-17T00:02:38.158Z,0
2018-10-17T00:03:37.587Z,0
2018-10-17T00:04:37.874Z,0
2018-10-17T00:05:37.645Z,0
2018-10-17T00:06:38.184Z,0
2018-10-17T00:07:38.217Z,0
2018-10-17T00:08:37.981Z,0
2018-10-17T00:09:38.005Z,0
2018-10-17T00:10:37.782Z,0
2018-10-17T00:11:37.806Z,0
2018-10-17T00:12:38.091Z,0
2018-10-17T00:13:38.124Z,0
2018-10-17T00:14:38.141Z,0
2018-10-17T00:15:38.432Z,0
2018-10-17T00:16:38.204Z,0
2018-10-17T00:17:38.232Z,0
2018-10-17T00:18:38.256Z,0
2018-10-17T00:19:38.320Z,0
2018-10-17T00:20:38.051Z,0
2018-10-17T00:21:38.589Z,0
2018-10-17T00:22:38.364Z,0
2018-10-17T00:23:38.387Z,0
2018-10-17T00:24:38.155Z,0
2018-10-17T00:25:38.448Z,0
2018-10-17T00:26:38.469Z,0
2018-10-17T00:27:38.237Z,0
2018-10-17T00:28:38.264Z,0
2018-10-17T00:29:38.548Z,0
2018-10-17T00:30:38.067Z,0
2018-10-17T00:31:38.854Z,0
2018-10-17T00:32:38.890Z,0
2018-10-17T00:33:38.660Z,0
2018-10-17T00:34:38.941Z,0
2018-10-17T00:35:38.711Z,0
2018-10-17T00:36:38.748Z,0
2018-10-17T00:37:38.764Z,0
2018-10-17T00:38:38.786Z,0
2018-10-17T00:39:38.815Z,0
2018-10-17T00:40:39.430Z,0
2018-10-17T00:41:39.124Z,0
2018-10-17T00:42:38.645Z,0
2018-10-17T00:43:38.927Z,0
2018-10-17T00:44:39.212Z,0
2018-10-17T00:45:38.984Z,0
2018-10-17T00:46:39.266Z,0
2018-10-17T00:47:39.035Z,0
2018-10-17T00:48:39.315Z,0
2018-10-17T00:49:39.102Z,0
2018-10-17T00:50:39.117Z,0
2018-10-17T00:51:38.894Z,0
2018-10-17T00:52:39.182Z,0
2018-10-17T00:53:39.449Z,0
2018-10-17T00:54:39.224Z,0
2018-10-17T00:55:39.000Z,0
2018-10-17T00:56:39.277Z,0
2018-10-17T00:57:39.304Z,0
2018-10-17T00:58:39.587Z,0
2018-10-17T00:59:39.362Z,0
2018-10-17T01:00:39.385Z,0
2018-10-17T01:01:39.156Z,0
2018-10-17T01:02:39.439Z,0
2018-10-17T01:03:39.724Z,0
2018-10-17T01:04:39.748Z,0
2018-10-17T01:05:39.523Z,0
2018-10-17T01:06:39.557Z,0
2018-10-17T01:07:39.863Z,0
2018-10-17T01:08:39.599Z,0
2018-10-17T01:09:39.894Z,0
2018-10-17T01:10:39.903Z,0
2018-10-17T01:11:39.682Z,0
2018-10-17T01:12:39.709Z,0
2018-10-17T01:13:39.733Z,0
2018-10-17T01:14:39.777Z,0
2018-10-17T01:15:39.790Z,0
2018-10-17T01:16:40.083Z,0
2018-10-17T01:17:39.850Z,0
2018-10-17T01:18:39.877Z,0
2018-10-17T01:19:40.177Z,0
2018-10-17T01:20:39.673Z,0
2018-10-17T01:21:40.216Z,0
2018-10-17T01:22:39.476Z,0
2018-10-17T01:23:40.007Z,0
2018-10-17T01:24:40.294Z,0
2018-10-17T01:25:40.317Z,0
2018-10-17T01:26:40.340Z,0
2018-10-17T01:27:40.113Z,0
2018-10-17T01:28:40.138Z,0
2018-10-17T01:29:39.915Z,0
2018-10-17T01:30:39.945Z,0
2018-10-17T01:31:40.476Z,0
2018-10-17T01:32:40.508Z,0
2018-10-17T01:33:40.285Z,0
2018-10-17T01:34:40.309Z,0
2018-10-17T01:35:40.079Z,0
2018-10-17T01:36:40.358Z,0
2018-10-17T01:37:40.389Z,0
2018-10-17T01:38:40.419Z,0
2018-10-17T01:39:40.707Z,0
2018-10-17T01:40:40.721Z,0
2018-10-17T01:41:39.982Z,0
2018-10-17T01:42:40.517Z,0
2018-10-17T01:43:40.304Z,0
2018-10-17T01:44:40.580Z,0
2018-10-17T01:45:40.598Z,0
2018-10-17T01:46:40.369Z,0
2018-10-17T01:47:40.908Z,0
2018-10-17T01:48:40.678Z,0
2018-10-17T01:49:40.457Z,0
2018-10-17T01:50:41.004Z,0
2018-10-17T01:51:40.767Z,0
2018-10-17T01:52:40.535Z,0
2018-10-17T01:53:41.071Z,0
2018-10-17T01:54:40.592Z,0
2018-10-17T01:55:41.125Z,0
2018-10-17T01:56:40.904Z,0
2018-10-17T01:57:40.668Z,0
2018-10-17T01:58:40.960Z,0
2018-10-17T01:59:40.986Z,0
2018-10-17T02:00:40.749Z,0
2018-10-17T02:01:40.778Z,0
2018-10-17T02:02:41.059Z,0
2018-10-17T02:03:40.581Z,0
2018-10-17T02:04:41.365Z,0
2018-10-17T02:05:41.401Z,0
2018-10-17T02:06:41.420Z,0
2018-10-17T02:07:40.937Z,0
2018-10-17T02:08:40.710Z,0
2018-10-17T02:09:41.518Z,0
2018-10-17T02:10:41.021Z,0
2018-10-17T02:11:41.566Z,0
2018-10-17T02:12:41.595Z,0
2018-10-17T02:13:41.618Z,0
2018-10-17T02:14:41.377Z,0
2018-10-17T02:15:41.414Z,0
2018-10-17T02:16:41.689Z,0
2018-10-17T02:17:41.269Z,0
2018-10-17T02:18:41.743Z,0
2018-10-17T02:19:41.780Z,0
2018-10-17T02:20:41.798Z,0
2018-10-17T02:21:41.825Z,0
2018-10-17T02:22:41.334Z,0
2018-10-17T02:23:41.627Z,0
2018-10-17T02:24:41.400Z,0
2018-10-17T02:25:41.426Z,0
2018-10-17T02:26:41.973Z,0
2018-10-17T02:27:41.220Z,0
2018-10-17T02:28:41.763Z,0
2018-10-17T02:29:41.537Z,0
2018-10-17T02:30:42.077Z,0
2018-10-17T02:31:41.590Z,0
2018-10-17T02:32:41.886Z,0
2018-10-17T02:33:42.158Z,0
2018-10-17T02:34:41.683Z,0
2018-10-17T02:35:41.711Z,0
2018-10-17T02:36:42.261Z,0
2018-10-17T02:37:42.009Z,0
2018-10-17T02:38:42.028Z,0
2018-10-17T02:39:42.388Z,0
2018-10-17T02:40:41.836Z,0
2018-10-17T02:41:42.123Z,0
2018-10-17T02:42:41.893Z,0
2018-10-17T02:43:42.174Z,0
2018-10-17T02:44:41.680Z,0
2018-10-17T02:45:42.475Z,0
2018-10-17T02:46:42.251Z,0
2018-10-17T02:47:42.017Z,0
2018-10-17T02:48:42.564Z,0
2018-10-17T02:49:42.346Z,0
2018-10-17T02:50:42.363Z,0
2018-10-17T02:51:42.395Z,0
2018-10-17T02:52:42.420Z,0
2018-10-17T02:53:42.196Z,0
2018-10-17T02:54:42.469Z,0
2018-10-17T02:55:42.498Z,0
2018-10-17T02:56:42.528Z,0
2018-10-17T02:57:42.807Z,0
2018-10-17T02:58:42.328Z,0
2018-10-17T02:59:42.882Z,0
2018-10-17T03:00:42.119Z,0
2018-10-17T03:01:42.657Z,0
2018-10-17T03:02:42.430Z,0
2018-10-17T03:03:42.456Z,0
2018-10-17T03:04:42.990Z,0
2018-10-17T03:05:42.533Z,0
2018-10-17T03:06:42.793Z,0
2018-10-17T03:07:42.306Z,0
2018-10-17T03:08:42.847Z,0
2018-10-17T03:09:42.873Z,0
2018-10-17T03:10:43.159Z,0
2018-10-17T03:11:42.417Z,0
2018-10-17T03:12:42.444Z,0
2018-10-17T03:13:43.436Z,0
2018-10-17T03:14:43.275Z,0
2018-10-17T03:15:43.038Z,0
2018-10-17T03:16:42.549Z,0
2018-10-17T03:17:43.368Z,0
2018-10-17T03:18:42.862Z,0
2018-10-17T03:19:43.151Z,0
2018-10-17T03:20:43.168Z,0
2018-10-17T03:21:42.936Z,0
2018-10-17T03:22:43.236Z,0
2018-10-17T03:23:43.011Z,0
2018-10-17T03:24:43.277Z,0
2018-10-17T03:25:43.334Z,0
2018-10-17T03:26:43.353Z,0
2018-10-17T03:27:43.502Z,0
2018-10-17T03:28:43.377Z,0
2018-10-17T03:29:43.425Z,0
2018-10-17T03:30:43.184Z,0
2018-10-17T03:31:43.647Z,0
2018-10-17T03:32:43.513Z,0
2018-10-17T03:33:43.779Z,0
2018-10-17T03:34:43.814Z,0
2018-10-17T03:35:43.614Z,0
2018-10-17T03:36:43.603Z,0
2018-10-17T03:37:43.640Z,0
2018-10-17T03:38:43.652Z,0
2018-10-17T03:39:43.948Z,0
2018-10-17T03:40:43.710Z,0
2018-10-17T03:41:44.015Z,0
2018-10-17T03:42:43.511Z,0
2018-10-17T03:43:44.050Z,0
2018-10-17T03:44:44.099Z,0
2018-10-17T03:45:43.335Z,0
2018-10-17T03:46:43.620Z,0
2018-10-17T03:47:43.644Z,0
2018-10-17T03:48:43.664Z,0
2018-10-17T03:49:43.736Z,0
2018-10-17T03:50:43.735Z,0
2018-10-17T03:51:44.017Z,0
2018-10-17T03:52:43.792Z,0
2018-10-17T03:53:43.559Z,0
2018-10-17T03:54:44.348Z,0
2018-10-17T03:55:44.123Z,0
2018-10-17T03:56:44.156Z,0
2018-10-17T03:57:44.427Z,0
2018-10-17T03:58:44.785Z,0
2018-10-17T03:59:45.576Z,0
2018-10-17T04:00:44.262Z,0
2018-10-17T04:01:44.282Z,0
2018-10-17T04:02:44.313Z,0
2018-10-17T04:03:44.079Z,0
2018-10-17T04:04:44.622Z,0
2018-10-17T04:05:44.411Z,0
2018-10-17T04:06:44.686Z,0
2018-10-17T04:07:44.456Z,0
2018-10-17T04:08:44.477Z,0
2018-10-17T04:09:44.244Z,0
2018-10-17T04:10:44.533Z,0
2018-10-17T04:11:44.303Z,0
2018-10-17T04:12:44.324Z,0
2018-10-17T04:13:44.605Z,0
2018-10-17T04:14:44.897Z,0
2018-10-17T04:15:44.928Z,0
2018-10-17T04:16:44.691Z,0
2018-10-17T04:17:44.974Z,0
2018-10-17T04:18:44.748Z,0
2018-10-17T04:19:44.770Z,0
2018-10-17T04:20:45.214Z,0
2018-10-17T04:21:44.570Z,0
2018-10-17T04:22:44.734Z,0
2018-10-17T04:23:44.368Z,0
2018-10-17T04:24:44.653Z,0
2018-10-17T04:25:44.933Z,0
2018-10-17T04:26:44.709Z,0
2018-10-17T04:27:44.738Z,0
2018-10-17T04:28:45.012Z,0
2018-10-17T04:29:45.040Z,0
2018-10-17T04:30:45.083Z,0
2018-10-17T04:31:44.839Z,0
2018-10-17T04:32:45.128Z,0
2018-10-17T04:33:44.894Z,0
2018-10-17T04:34:45.173Z,0
2018-10-17T04:35:45.462Z,0
2018-10-17T04:36:45.235Z,0
2018-10-17T04:37:45.528Z,0
2018-10-17T04:38:44.805Z,16
2018-10-17T04:39:45.060Z,16
2018-10-17T04:40:45.095Z,0
2018-10-17T04:41:45.629Z,0
2018-10-17T04:42:45.655Z,0
2018-10-17T04:43:45.675Z,0
2018-10-17T04:44:45.706Z,0
2018-10-17T04:45:45.423Z,0
2018-10-17T04:46:45.753Z,0
2018-10-17T04:47:45.403Z,0
2018-10-17T04:48:45.554Z,0
2018-10-17T04:49:45.336Z,0
2018-10-17T04:50:45.360Z,0
2018-10-17T04:51:45.662Z,0
2018-10-17T04:52:45.407Z,0
2018-10-17T04:53:45.952Z,0
2018-10-17T04:54:45.722Z,0
2018-10-17T04:55:45.482Z,0
2018-10-17T04:56:45.524Z,0
2018-10-17T04:57:45.854Z,0
2018-10-17T04:58:45.845Z,0
2018-10-17T04:59:46.112Z,0
2018-10-17T05:00:46.151Z,0
2018-10-17T05:01:45.912Z,0
2018-10-17T05:02:45.955Z,0
2018-10-17T05:03:45.717Z,0
2018-10-17T05:04:45.997Z,0
2018-10-17T05:05:46.294Z,0
2018-10-17T05:06:45.888Z,0
2018-10-17T05:07:46.074Z,0
2018-10-17T05:08:46.099Z,0
2018-10-17T05:09:46.133Z,0
2018-10-17T05:10:45.896Z,0
2018-10-17T05:11:46.430Z,0
2018-10-17T05:12:45.956Z,0
2018-10-17T05:13:45.974Z,0
2018-10-17T05:14:46.256Z,0
2018-10-17T05:15:46.536Z,0
2018-10-17T05:16:46.570Z,0
2018-10-17T05:17:45.826Z,0
2018-10-17T05:18:46.111Z,0
2018-10-17T05:19:46.404Z,0
2018-10-17T05:20:46.420Z,0
2018-10-17T05:21:46.453Z,0
2018-10-17T05:22:46.226Z,0
2018-10-17T05:23:46.502Z,0
2018-10-17T05:24:46.791Z,0
2018-10-17T05:25:46.811Z,0
2018-10-17T05:26:46.576Z,0
2018-10-17T05:27:46.355Z,0
2018-10-17T05:28:46.897Z,0
2018-10-17T05:29:46.962Z,0
2018-10-17T05:30:46.692Z,0
2018-10-17T05:31:46.713Z,0
2018-10-17T05:32:46.225Z,0
2018-10-17T05:33:46.772Z,0
2018-10-17T05:34:46.540Z,0
2018-10-17T05:35:46.567Z,0
2018-10-17T05:36:46.851Z,0
2018-10-17T05:37:47.353Z,0
2018-10-17T05:38:46.653Z,0
2018-10-17T05:39:46.930Z,0
2018-10-17T05:40:46.957Z,0
2018-10-17T05:41:46.979Z,0
2018-10-17T05:42:46.757Z,4
2018-10-17T05:43:46.790Z,0
2018-10-17T05:44:47.074Z,0
2018-10-17T05:45:46.835Z,0
2018-10-17T05:46:46.613Z,0
2018-10-17T05:47:46.898Z,0
2018-10-17T05:48:46.929Z,0
2018-10-17T05:49:46.944Z,0
2018-10-17T05:50:47.230Z,0
2018-10-17T05:51:47.264Z,4
2018-10-17T05:52:47.035Z,4
2018-10-17T05:53:47.310Z,4
2018-10-17T05:54:47.348Z,4
2018-10-17T05:55:47.242Z,0
2018-10-17T05:56:47.138Z,0
2018-10-17T05:57:47.426Z,0
2018-10-17T05:58:47.454Z,0
2018-10-17T05:59:47.477Z,4
2018-10-17T06:00:47.509Z,4
2018-10-17T06:01:48.322Z,4
2018-10-17T06:02:47.816Z,0
2018-10-17T06:03:47.583Z,4
2018-10-17T06:04:47.359Z,4
2018-10-17T06:05:47.898Z,4
2018-10-17T06:06:47.410Z,0
2018-10-17T06:07:47.696Z,4
2018-10-17T06:08:47.726Z,4
2018-10-17T06:09:47.803Z,4
2018-10-17T06:10:47.525Z,4
2018-10-17T06:11:47.830Z,4
2018-10-17T06:12:47.841Z,4
2018-10-17T06:13:47.865Z,8
2018-10-17T06:14:48.143Z,4
2018-10-17T06:15:47.916Z,4
2018-10-17T06:16:48.468Z,4
2018-10-17T06:17:47.712Z,8
2018-10-17T06:18:48.292Z,4
2018-10-17T06:19:48.282Z,4
2018-10-17T06:20:47.826Z,8
2018-10-17T06:21:48.078Z,8
2018-10-17T06:22:48.102Z,8
2018-10-17T06:23:48.131Z,4
2018-10-17T06:24:47.904Z,8
2018-10-17T06:25:48.182Z,8
2018-10-17T06:26:47.965Z,8
2018-10-17T06:27:47.985Z,8
2018-10-17T06:28:48.266Z,8
2018-10-17T06:29:48.299Z,8
2018-10-17T06:30:48.698Z,8
2018-10-17T06:31:48.356Z,8
2018-10-17T06:32:48.635Z,8
2018-10-17T06:33:48.435Z,8
2018-10-17T06:34:49.113Z,8
2018-10-17T06:35:48.466Z,12
2018-10-17T06:36:48.746Z,8
2018-10-17T06:37:48.265Z,8
2018-10-17T06:38:48.559Z,8
2018-10-17T06:39:48.313Z,8
2018-10-17T06:40:48.589Z,12
2018-10-17T06:41:48.879Z,8
2018-10-17T06:42:48.912Z,12
2018-10-17T06:43:49.044Z,12
2018-10-17T06:44:48.713Z,12
2018-10-17T06:45:49.067Z,8
2018-10-17T06:46:48.529Z,12
2018-10-17T06:47:48.531Z,12
2018-10-17T06:48:48.820Z,12
2018-10-17T06:49:48.775Z,16
2018-10-17T06:50:49.007Z,12
2018-10-17T06:51:49.156Z,12
2018-10-17T06:52:48.922Z,12
2018-10-17T06:53:49.195Z,12
2018-10-17T06:54:48.985Z,16
2018-10-17T06:55:48.499Z,16
2018-10-17T06:56:49.288Z,12
2018-10-17T06:57:49.069Z,12
2018-10-17T06:58:48.833Z,12
2018-10-17T06:59:49.104Z,12
2018-10-17T07:00:48.887Z,12
2018-10-17T07:01:49.418Z,16
2018-10-17T07:02:48.939Z,16
2018-10-17T07:03:49.222Z,12
2018-10-17T07:04:49.517Z,16
2018-10-17T07:05:49.292Z,16
2018-10-17T07:06:49.049Z,16
2018-10-17T07:07:49.334Z,16
2018-10-17T07:08:49.366Z,16
2018-10-17T07:09:49.391Z,16
2018-10-17T07:10:49.162Z,12
2018-10-17T07:11:49.440Z,12
2018-10-17T07:12:49.482Z,12
2018-10-17T07:13:48.984Z,12
2018-10-17T07:14:49.531Z,12
2018-10-17T07:15:50.045Z,16
2018-10-17T07:16:49.584Z,16
2018-10-17T07:17:49.351Z,12
2018-10-17T07:18:49.119Z,16
2018-10-17T07:19:49.409Z,16
2018-10-17T07:20:49.947Z,16
2018-10-17T07:21:49.463Z,16
2018-10-17T07:22:50.002Z,16
2018-10-17T07:23:49.777Z,16
2018-10-17T07:24:50.051Z,20
2018-10-17T07:25:49.823Z,20
2018-10-17T07:26:49.603Z,20
2018-10-17T07:27:50.138Z,24
2018-10-17T07:28:50.580Z,24
2018-10-17T07:29:50.679Z,24
2018-10-17T07:30:49.966Z,24
2018-10-17T07:31:50.244Z,24
2018-10-17T07:32:50.023Z,20
2018-10-17T07:33:50.305Z,24
2018-10-17T07:34:50.071Z,24
2018-10-17T07:35:49.955Z,24
2018-10-17T07:36:50.120Z,24
2018-10-17T07:37:50.161Z,28
2018-10-17T07:38:50.176Z,28
2018-10-17T07:39:50.202Z,28
2018-10-17T07:40:50.491Z,28
2018-10-17T07:41:49.998Z,28
2018-10-17T07:42:50.281Z,28
2018-10-17T07:43:49.824Z,28
2018-10-17T07:44:50.610Z,28
2018-10-17T07:45:50.610Z,28
2018-10-17T07:46:50.396Z,28
2018-10-17T07:47:50.161Z,28
2018-10-17T07:48:50.190Z,32
2018-10-17T07:49:50.473Z,28
2018-10-17T07:50:49.989Z,28
2018-10-17T07:51:50.531Z,28
2018-10-17T07:52:50.663Z,32
2018-10-17T07:53:50.536Z,28
2018-10-17T07:54:50.606Z,28
2018-10-17T07:55:50.632Z,28
2018-10-17T07:56:50.153Z,32
2018-10-17T07:57:50.443Z,32
2018-10-17T07:58:50.207Z,28
2018-10-17T07:59:51.119Z,32
2018-10-17T08:00:51.035Z,28
2018-10-17T08:01:50.544Z,28
2018-10-17T08:02:50.580Z,28
2018-10-17T08:03:50.853Z,28
2018-10-17T08:04:50.885Z,28
2018-10-17T08:05:50.923Z,32
2018-10-17T08:06:51.586Z,28
2018-10-17T08:07:51.232Z,28
2018-10-17T08:08:50.734Z,28
2018-10-17T08:09:51.022Z,24
2018-10-17T08:10:50.781Z,24
2018-10-17T08:11:51.074Z,28
2018-10-17T08:12:50.852Z,28
2018-10-17T08:13:51.469Z,28
2018-10-17T08:14:50.891Z,24
2018-10-17T08:15:51.494Z,24
2018-10-17T08:16:51.399Z,28
2018-10-17T08:17:51.505Z,28
2018-10-17T08:18:51.004Z,28
2018-10-17T08:19:51.032Z,28
2018-10-17T08:20:51.311Z,32
2018-10-17T08:21:51.084Z,28
2018-10-17T08:22:51.637Z,28
2018-10-17T08:23:51.402Z,28
2018-10-17T08:24:51.694Z,28
2018-10-17T08:25:50.934Z,24
2018-10-17T08:26:51.226Z,28
2018-10-17T08:27:51.507Z,28
2018-10-17T08:28:51.281Z,28
2018-10-17T08:29:51.824Z,28
2018-10-17T08:30:51.587Z,24
2018-10-17T08:31:51.863Z,28
2018-10-17T08:32:51.900Z,24
2018-10-17T08:33:51.670Z,24
2018-10-17T08:34:51.694Z,24
2018-10-17T08:35:52.279Z,24
2018-10-17T08:36:53.640Z,24
2018-10-17T08:37:53.556Z,24
2018-10-17T08:38:51.812Z,28
2018-10-17T08:39:51.842Z,28
2018-10-17T08:40:52.243Z,28
2018-10-17T08:41:51.626Z,28
2018-10-17T08:42:52.173Z,28
2018-10-17T08:43:51.746Z,24
2018-10-17T08:44:52.258Z,28
2018-10-17T08:45:51.994Z,28
2018-10-17T08:46:52.022Z,28
2018-10-17T08:47:52.047Z,28
2018-10-17T08:48:52.352Z,28
2018-10-17T08:49:52.386Z,24
2018-10-17T08:50:52.640Z,28
2018-10-17T08:51:51.894Z,24
2018-10-17T08:52:52.455Z,24
2018-10-17T08:53:52.223Z,24
2018-10-17T08:54:52.237Z,24
2018-10-17T08:55:52.521Z,24
2018-10-17T08:56:52.036Z,24
2018-10-17T08:57:52.274Z,24
2018-10-17T08:58:52.607Z,24
2018-10-17T08:59:52.634Z,24
2018-10-17T09:00:52.658Z,24
2018-10-17T09:01:52.449Z,24
2018-10-17T09:02:52.459Z,20
2018-10-17T09:03:52.747Z,24
2018-10-17T09:04:51.998Z,24
2018-10-17T09:05:52.579Z,28
2018-10-17T09:06:52.563Z,24
2018-10-17T09:07:53.515Z,28
2018-10-17T09:08:52.352Z,28
2018-10-17T09:09:52.646Z,28
2018-10-17T09:10:52.412Z,28
2018-10-17T09:11:52.477Z,28
2018-10-17T09:12:52.981Z,28
2018-10-17T09:13:52.772Z,32
2018-10-17T09:14:52.520Z,28
2018-10-17T09:15:52.604Z,32
2018-10-17T09:16:53.417Z,32
2018-10-17T09:17:53.210Z,28
2018-10-17T09:18:52.890Z,28
2018-10-17T09:19:54.219Z,28
2018-10-17T09:20:53.472Z,28
2018-10-17T09:21:54.724Z,28
2018-10-17T09:22:52.998Z,28
2018-10-17T09:23:53.351Z,28
2018-10-17T09:24:53.363Z,28
2018-10-17T09:25:53.542Z,28
2018-10-17T09:26:52.849Z,28
2018-10-17T09:27:53.247Z,28
2018-10-17T09:28:53.160Z,32
2018-10-17T09:29:53.248Z,32
2018-10-17T09:30:52.963Z,32
2018-10-17T09:31:53.508Z,28
2018-10-17T09:32:53.265Z,28
2018-10-17T09:33:53.321Z,32
2018-10-17T09:34:53.360Z,28
2018-10-17T09:35:54.174Z,28
2018-10-17T09:36:53.384Z,32
2018-10-17T09:37:53.146Z,32
2018-10-17T09:38:53.433Z,28
2018-10-17T09:39:53.469Z,32
2018-10-17T09:40:53.225Z,32
2018-10-17T09:42:53.536Z,32
2018-10-17T09:43:53.823Z,32
2018-10-17T09:44:53.330Z,32
2018-10-17T09:45:53.625Z,32
2018-10-17T09:46:53.385Z,32
2018-10-17T09:47:53.710Z,32
2018-10-17T09:48:53.973Z,32
2018-10-17T09:49:53.718Z,32
2018-10-17T09:50:53.999Z,32
2018-10-17T09:51:53.290Z,32
2018-10-17T09:52:53.548Z,32
2018-10-17T09:53:53.634Z,32
2018-10-17T09:54:53.598Z,32
2018-10-17T09:55:53.629Z,32
2018-10-17T09:56:53.658Z,32
2018-10-17T09:57:54.007Z,32
2018-10-17T09:58:54.220Z,32
2018-10-17T09:59:53.514Z,28
2018-10-17T10:00:54.268Z,32
2018-10-17T10:01:53.828Z,28
2018-10-17T10:02:53.813Z,32
2018-10-17T10:03:53.847Z,32
2018-10-17T10:04:53.872Z,32
2018-10-17T10:05:53.964Z,28
2018-10-17T10:06:53.918Z,32
2018-10-17T10:07:54.469Z,32
2018-10-17T10:08:54.232Z,32
2018-10-17T10:09:54.049Z,32
2018-10-17T10:10:54.378Z,32
2018-10-17T10:11:54.190Z,36
2018-10-17T10:12:54.600Z,36
2018-10-17T10:13:54.372Z,36
2018-10-17T10:14:54.139Z,36
2018-10-17T10:15:53.914Z,36
2018-10-17T10:16:54.835Z,36
2018-10-17T10:17:54.225Z,36
2018-10-17T10:18:54.519Z,36
2018-10-17T10:19:54.528Z,32
2018-10-17T10:20:54.819Z,32
2018-10-17T10:21:54.630Z,32
2018-10-17T10:22:54.447Z,36
2018-10-17T10:23:54.152Z,36
2018-10-17T10:24:55.174Z,32
2018-10-17T10:25:54.694Z,32
2018-10-17T10:26:54.714Z,36
2018-10-17T10:27:54.761Z,36
2018-10-17T10:28:54.772Z,36
2018-10-17T10:29:54.392Z,36
2018-10-17T10:30:54.826Z,36
2018-10-17T10:31:54.860Z,32
2018-10-17T10:32:54.362Z,36
2018-10-17T10:33:55.211Z,32
2018-10-17T10:34:54.931Z,32
2018-10-17T10:35:55.080Z,32
2018-10-17T10:36:54.993Z,32
2018-10-17T10:37:55.282Z,32
2018-10-17T10:38:55.047Z,32
2018-10-17T10:39:55.425Z,32
2018-10-17T10:40:55.299Z,32
2018-10-17T10:41:54.878Z,28
2018-10-17T10:42:55.407Z,32
2018-10-17T10:43:55.238Z,28
2018-10-17T10:44:55.363Z,32
2018-10-17T10:45:54.972Z,32
2018-10-17T10:46:55.511Z,32
2018-10-17T10:47:55.604Z,36
2018-10-17T10:48:55.171Z,32
2018-10-17T10:49:55.370Z,36
2018-10-17T10:50:55.707Z,36
2018-10-17T10:51:55.395Z,36
2018-10-17T10:52:55.679Z,32
2018-10-17T10:53:54.955Z,32
2018-10-17T10:54:55.215Z,32
2018-10-17T10:55:55.868Z,32
2018-10-17T10:56:55.912Z,36
2018-10-17T10:57:55.685Z,32
2018-10-17T10:58:56.238Z,36
2018-10-17T10:59:55.724Z,32
2018-10-17T11:00:55.377Z,36
2018-10-17T11:01:55.683Z,32
2018-10-17T11:02:55.537Z,32
2018-10-17T11:03:55.458Z,32
2018-10-17T11:04:55.716Z,36
2018-10-17T11:05:55.968Z,36
2018-10-17T11:06:55.788Z,32
2018-10-17T11:07:55.897Z,32
2018-10-17T11:08:55.592Z,32
2018-10-17T11:09:56.141Z,32
2018-10-17T11:10:56.267Z,32
2018-10-17T11:11:56.183Z,32
2018-10-17T11:12:56.235Z,32
2018-10-17T11:13:56.275Z,32
2018-10-17T11:14:57.391Z,32
2018-10-17T11:15:55.520Z,32
2018-10-17T11:16:56.113Z,32
2018-10-17T11:17:55.834Z,28
2018-10-17T11:18:55.599Z,28
2018-10-17T11:19:55.885Z,28
2018-10-17T11:20:56.617Z,28
2018-10-17T11:21:56.524Z,28
2018-10-17T11:22:56.349Z,28
2018-10-17T11:23:55.996Z,28
2018-10-17T11:24:56.275Z,28
2018-10-17T11:25:55.829Z,28
2018-10-17T11:26:56.679Z,24
2018-10-17T11:27:56.357Z,24
2018-10-17T11:28:56.781Z,28
2018-10-17T11:29:56.413Z,28
2018-10-17T11:30:56.702Z,28
2018-10-17T11:31:56.779Z,28
2018-10-17T11:32:56.654Z,28
2018-10-17T11:33:56.779Z,28
2018-10-17T11:34:56.063Z,28
2018-10-17T11:35:56.576Z,32
2018-10-17T11:36:56.340Z,32
2018-10-17T11:37:56.738Z,32
2018-10-17T11:38:56.695Z,32
2018-10-17T11:39:56.819Z,36
2018-10-17T11:40:57.299Z,32
2018-10-17T11:41:56.729Z,28
2018-10-17T11:42:57.025Z,28
2018-10-17T11:43:57.052Z,28
2018-10-17T11:44:56.924Z,28
2018-10-17T11:45:56.845Z,28
2018-10-17T11:46:56.887Z,28
2018-10-17T11:47:57.015Z,32
2018-10-17T11:48:56.918Z,32
2018-10-17T11:49:57.225Z,28
2018-10-17T11:50:57.121Z,28
2018-10-17T11:51:57.260Z,32
2018-10-17T11:52:56.811Z,32
2018-10-17T11:53:57.075Z,32
2018-10-17T11:54:57.076Z,28
2018-10-17T11:55:57.114Z,28
2018-10-17T11:56:57.199Z,28
2018-10-17T11:57:57.420Z,24
2018-10-17T11:58:57.237Z,28
2018-10-17T11:59:57.652Z,28
2018-10-17T12:00:57.250Z,28
2018-10-17T12:01:57.272Z,28
2018-10-17T12:02:57.158Z,24
2018-10-17T12:03:58.036Z,28
2018-10-17T12:04:57.016Z,28
2018-10-17T12:05:58.829Z,28
2018-10-17T12:06:57.147Z,28
2018-10-17T12:07:57.488Z,28
2018-10-17T12:08:57.483Z,28
2018-10-17T12:09:57.238Z,24
2018-10-17T12:10:57.513Z,24
2018-10-17T12:11:57.956Z,28
2018-10-17T12:12:57.567Z,32
2018-10-17T12:13:57.849Z,28
2018-10-17T12:14:57.685Z,28
2018-10-17T12:15:57.142Z,28
2018-10-17T12:16:57.457Z,28
2018-10-17T12:17:57.780Z,28
2018-10-17T12:18:57.272Z,28
2018-10-17T12:19:58.125Z,24
2018-10-17T12:20:58.101Z,28
2018-10-17T12:21:57.809Z,28
2018-10-17T12:22:57.834Z,28
2018-10-17T12:23:57.617Z,32
2018-10-17T12:24:57.632Z,28
2018-10-17T12:25:58.182Z,28
2018-10-17T12:26:58.405Z,28
2018-10-17T12:27:58.002Z,28
2018-10-17T12:28:58.120Z,28
2018-10-17T12:29:57.839Z,28
2018-10-17T12:30:57.797Z,28
2018-10-17T12:31:58.082Z,28
2018-10-17T12:32:57.927Z,28
2018-10-17T12:33:57.876Z,28
2018-10-17T12:34:58.208Z,28
2018-10-17T12:35:58.204Z,28
2018-10-17T12:36:57.953Z,24
2018-10-17T12:37:58.236Z,28
2018-10-17T12:38:58.582Z,24
2018-10-17T12:39:57.897Z,24
2018-10-17T12:40:58.406Z,28
2018-10-17T12:41:58.606Z,24
2018-10-17T12:42:58.679Z,24
2018-10-17T12:43:58.195Z,28
2018-10-17T12:44:58.607Z,28
2018-10-17T12:45:58.454Z,24
2018-10-17T12:46:58.620Z,28
2018-10-17T12:47:58.508Z,24
2018-10-17T12:48:58.657Z,24
2018-10-17T12:49:58.551Z,24
2018-10-17T12:50:58.855Z,24
2018-10-17T12:51:58.681Z,24
2018-10-17T12:52:59.180Z,24
2018-10-17T12:53:58.674Z,28
2018-10-17T12:54:58.792Z,28
2018-10-17T12:55:58.866Z,24
2018-10-17T12:56:58.241Z,28
2018-10-17T12:57:58.522Z,24
2018-10-17T12:58:59.217Z,28
2018-10-17T12:59:58.318Z,24
2018-10-17T13:00:58.371Z,24
2018-10-17T13:01:59.144Z,24
2018-10-17T13:02:59.166Z,24
2018-10-17T13:03:58.937Z,24
2018-10-17T13:04:59.187Z,28
2018-10-17T13:05:58.730Z,24
2018-10-17T13:06:59.434Z,28
2018-10-17T13:07:59.300Z,24
2018-10-17T13:08:59.071Z,28
2018-10-17T13:09:59.171Z,28
2018-10-17T13:10:59.605Z,28
2018-10-17T13:11:59.151Z,28
2018-10-17T13:12:59.018Z,24
2018-10-17T13:13:59.210Z,24
2018-10-17T13:14:59.191Z,24
2018-10-17T13:15:59.267Z,24
2018-10-17T13:16:59.069Z,24
2018-10-17T13:17:59.569Z,24
2018-10-17T13:18:59.765Z,20
2018-10-17T13:19:59.368Z,24
2018-10-17T13:20:59.395Z,24
2018-10-17T13:21:58.914Z,24
2018-10-17T13:22:59.626Z,24
2018-10-17T13:23:59.215Z,24
2018-10-17T13:24:59.549Z,20
2018-10-17T13:25:59.530Z,20
2018-10-17T13:26:59.811Z,16
2018-10-17T13:27:59.328Z,20
2018-10-17T13:28:59.427Z,20
2018-10-17T13:29:59.381Z,20
2018-10-17T13:30:59.868Z,20
2018-10-17T13:31:59.699Z,20
2018-10-17T13:32:59.720Z,16
2018-10-17T13:33:59.736Z,20
2018-10-17T13:34:59.267Z,20
2018-10-17T13:35:59.804Z,20
2018-10-17T13:36:59.664Z,24
2018-10-17T13:37:59.599Z,20
2018-10-17T13:38:59.875Z,20
2018-10-17T13:39:59.392Z,24
2018-10-17T13:41:00.338Z,20
2018-10-17T13:42:00.192Z,20
2018-10-17T13:43:00.105Z,24
2018-10-17T13:43:59.496Z,24
2018-10-17T13:44:59.782Z,20
2018-10-17T13:46:00.196Z,20
2018-10-17T13:46:59.896Z,24
2018-10-17T13:48:00.112Z,24
2018-10-17T13:48:59.712Z,24
2018-10-17T13:49:59.911Z,24
2018-10-17T13:51:00.456Z,24
2018-10-17T13:52:00.231Z,24
2018-10-17T13:53:00.735Z,24
2018-10-17T13:54:00.028Z,24
2018-10-17T13:55:00.070Z,24
2018-10-17T13:56:00.334Z,24
2018-10-17T13:57:00.102Z,24
2018-10-17T13:58:00.776Z,24
2018-10-17T13:59:00.780Z,24
2018-10-17T14:00:00.703Z,24
2018-10-17T14:01:00.611Z,24
2018-10-17T14:02:00.232Z,20
2018-10-17T14:03:00.262Z,24
2018-10-17T14:04:00.629Z,20
2018-10-17T14:05:00.309Z,20
2018-10-17T14:06:01.054Z,24
2018-10-17T14:07:00.679Z,24
2018-10-17T14:08:00.405Z,24
2018-10-17T14:09:00.468Z,20
2018-10-17T14:10:00.455Z,24
2018-10-17T14:11:00.738Z,24
2018-10-17T14:12:01.223Z,24
2018-10-17T14:13:00.270Z,24
2018-10-17T14:14:00.821Z,20
2018-10-17T14:15:01.479Z,20
2018-10-17T14:16:00.869Z,20
2018-10-17T14:17:00.900Z,20
2018-10-17T14:18:00.757Z,20
2018-10-17T14:19:00.944Z,20
2018-10-17T14:20:00.716Z,20
2018-10-17T14:21:01.066Z,20
2018-10-17T14:22:00.515Z,20
2018-10-17T14:23:00.803Z,24
2018-10-17T14:24:01.242Z,24
2018-10-17T14:25:00.856Z,20
2018-10-17T14:26:01.400Z,20
2018-10-17T14:27:01.078Z,24
2018-10-17T14:28:01.182Z,20
2018-10-17T14:29:00.956Z,20
2018-10-17T14:30:01.384Z,24
2018-10-17T14:31:01.265Z,24